DIP weather

Diapaga Airport
Diapaga, Tapoa, Burkina Faso

Public forecast

Using degrees Celsius for public forecast. Weather courtesy of forecast.io.

Closest aviation weather report (METAR) to Diapaga Airport

Report is more than 6 hours old.

Closest report is Fada N'gourma Airport, 84.3 nm (156.0 km) W. Retrieved 2009/09/21 17:00 UTC (10 years ago):

DFEF 211700Z 00000KT 9999 FEW0226 TCU BKN260 30/25

Closest aviation forecast (TAF) to Diapaga Airport

Forecast is more than 6 hours old.

Closest forecast is Diori Hamani International Airport, 88.5 nm (163.8 km) NNE. Retrieved 2020/02/20 18:21 UTC (6 hours ago):

TAF DRRN 201700Z 2018/2124 04008KT 8000 NSC BECMG 2104/2106 2500 DU TEMPO 2106/2111 10018KT 1200 BLDU